sensor_id;sensor_type;location;lat;lon;timestamp;P1;durP1;ratioP1;P2;durP2;ratioP2
15557;SDS011;7880;50.110;9.372;2023-04-15T00:03:11;4.638461538461538;;;3.06923076923077;;
15557;SDS011;7880;50.110;9.372;2023-04-15T00:08:07;8.892307692307691;;;5.299999999999999;;
15557;SDS011;7880;50.110;9.372;2023-04-15T00:13:14;7.400000000000001;;;4.200000000000001;;
15557;SDS011;7880;50.110;9.372;2023-04-15T00:18:15;11.538461538461538;;;5.56923076923077;;
15557;SDS011;7880;50.110;9.372;2023-04-15T00:23:23;8.33846153846154;;;4.23076923076923;;
15557;SDS011;7880;50.110;9.372;2023-04-15T00:28:25;5.938461538461538;;;3.3307692307692305;;
15557;SDS011;7880;50.110;9.372;2023-04-15T00:33:30;6.0076923076923086;;;3.6692307692307695;;
15557;SDS011;7880;50.110;9.372;2023-04-15T00:38:37;4.323076923076924;;;3.2;;
15557;SDS011;7880;50.110;9.372;2023-04-15T00:43:45;4.3076923076923075;;;2.7692307692307705;;
15557;SDS011;7880;50.110;9.372;2023-04-15T00:48:43;3.869230769230768;;;2.630769230769231;;
15557;SDS011;7880;50.110;9.372;2023-04-15T00:53:48;3.5;;;2.899999999999999;;
15557;SDS011;7880;50.110;9.372;2023-04-15T00:58:53;8.407692307692308;;;3.06923076923077;;
15557;SDS011;7880;50.110;9.372;2023-04-15T01:03:57;4.723076923076922;;;3.1230769230769235;;
15557;SDS011;7880;50.110;9.372;2023-04-15T01:09:10;5.4;;;3.899999999999999;;
15557;SDS011;7880;50.110;9.372;2023-04-15T01:14:07;5.338461538461538;;;3.838461538461539;;
15557;SDS011;7880;50.110;9.372;2023-04-15T01:19:15;4.569230769230769;;;3.100000000000001;;
15557;SDS011;7880;50.110;9.372;2023-04-15T01:24:16;3.630769230769232;;;3.030769230769231;;
15557;SDS011;7880;50.110;9.372;2023-04-15T01:29:18;5.1692307692307695;;;3.2999999999999994;;
15557;SDS011;7880;50.110;9.372;2023-04-15T01:34:22;6.5;;;3.469230769230769;;
15557;SDS011;7880;50.110;9.372;2023-04-15T01:39:27;4.769230769230769;;;3.2;;
15557;SDS011;7880;50.110;9.372;2023-04-15T01:44:32;3.8307692307692305;;;2.7307692307692295;;
15557;SDS011;7880;50.110;9.372;2023-04-15T01:49:37;4.438461538461538;;;2.7692307692307705;;
15557;SDS011;7880;50.110;9.372;2023-04-15T01:54:41;3.338461538461539;;;2.3000000000000003;;
15557;SDS011;7880;50.110;9.372;2023-04-15T01:59:48;2.392307692307693;;;2.1307692307692307;;
15557;SDS011;7880;50.110;9.372;2023-04-15T02:04:53;3.2;;;1.7307692307692308;;
15557;SDS011;7880;50.110;9.372;2023-04-15T02:09:55;2.6000000000000005;;;1.8999999999999997;;
15557;SDS011;7880;50.110;9.372;2023-04-15T02:15:01;2.230769230769231;;;2.030769230769231;;
15557;SDS011;7880;50.110;9.372;2023-04-15T02:20:08;5.1692307692307695;;;2.169230769230769;;
15557;SDS011;7880;50.110;9.372;2023-04-15T02:25:16;2.0846153846153848;;;1.7307692307692308;;
15557;SDS011;7880;50.110;9.372;2023-04-15T02:30:16;2.3000000000000003;;;1.8000000000000005;;
15557;SDS011;7880;50.110;9.372;2023-04-15T02:35:20;4.138461538461539;;;1.8999999999999997;;
15557;SDS011;7880;50.110;9.372;2023-04-15T02:40:26;3.6692307692307695;;;2.1000000000000005;;
15557;SDS011;7880;50.110;9.372;2023-04-15T02:45:30;2.030769230769231;;;1.8000000000000005;;
15557;SDS011;7880;50.110;9.372;2023-04-15T02:50:41;2.269230769230769;;;1.8000000000000005;;
15557;SDS011;7880;50.110;9.372;2023-04-15T02:55:42;2.046153846153847;;;1.8461538461538456;;
15557;SDS011;7880;50.110;9.372;2023-04-15T03:00:44;4.469230769230769;;;1.6;;
15557;SDS011;7880;50.110;9.372;2023-04-15T03:05:48;2.3999999999999995;;;2.0;;
15557;SDS011;7880;50.110;9.372;2023-04-15T03:10:53;3.56923076923077;;;1.6;;
15557;SDS011;7880;50.110;9.372;2023-04-15T03:16:00;2.6384615384615384;;;1.6999999999999995;;
15557;SDS011;7880;50.110;9.372;2023-04-15T03:21:02;2.669230769230769;;;1.969230769230769;;
15557;SDS011;7880;50.110;9.372;2023-04-15T03:26:06;7.276923076923077;;;2.030769230769231;;
15557;SDS011;7880;50.110;9.372;2023-04-15T03:31:11;2.969230769230769;;;1.4;;
15557;SDS011;7880;50.110;9.372;2023-04-15T03:36:16;2.7;;;1.8999999999999997;;
15557;SDS011;7880;50.110;9.372;2023-04-15T03:41:20;3.969230769230769;;;2.1000000000000005;;
15557;SDS011;7880;50.110;9.372;2023-04-15T03:46:31;2.630769230769231;;;2.1307692307692307;;
15557;SDS011;7880;50.110;9.372;2023-04-15T03:51:33;6.976923076923078;;;2.169230769230769;;
15557;SDS011;7880;50.110;9.372;2023-04-15T03:56:35;4.569230769230769;;;2.899999999999999;;
15557;SDS011;7880;50.110;9.372;2023-04-15T04:01:40;4.36153846153846;;;2.6000000000000005;;
15557;SDS011;7880;50.110;9.372;2023-04-15T04:06:43;2.5;;;2.1000000000000005;;
15557;SDS011;7880;50.110;9.372;2023-04-15T04:11:52;4.299999999999999;;;2.630769230769231;;
15557;SDS011;7880;50.110;9.372;2023-04-15T04:16:51;2.969230769230769;;;2.0;;
15557;SDS011;7880;50.110;9.372;2023-04-15T04:21:57;1.7230769230769227;;;1.5;;
15557;SDS011;7880;50.110;9.372;2023-04-15T04:27:01;4.730769230769231;;;3.030769230769231;;
15557;SDS011;7880;50.110;9.372;2023-04-15T04:32:05;2.969230769230769;;;2.269230769230769;;
15557;SDS011;7880;50.110;9.372;2023-04-15T04:37:10;4.36153846153846;;;2.1000000000000005;;
15557;SDS011;7880;50.110;9.372;2023-04-15T04:42:14;2.469230769230769;;;2.1000000000000005;;
15557;SDS011;7880;50.110;9.372;2023-04-15T04:47:18;2.3999999999999995;;;2.1999999999999997;;
15557;SDS011;7880;50.110;9.372;2023-04-15T04:52:01;3.2;;;2.1000000000000005;;
15557;SDS011;7880;50.110;9.372;2023-04-15T04:57:07;1.6307692307692305;;;1.530769230769231;;
15557;SDS011;7880;50.110;9.372;2023-04-15T05:02:11;3.5923076923076915;;;2.630769230769231;;
15557;SDS011;7880;50.110;9.372;2023-04-15T05:07:16;5.038461538461539;;;2.1999999999999997;;
15557;SDS011;7880;50.110;9.372;2023-04-15T05:12:18;8.984615384615386;;;5.06923076923077;;
15557;SDS011;7880;50.110;9.372;2023-04-15T05:17:21;4.6230769230769235;;;2.830769230769231;;
15557;SDS011;7880;50.110;9.372;2023-04-15T05:22:25;5.707692307692307;;;2.030769230769231;;
15557;SDS011;7880;50.110;9.372;2023-04-15T05:27:29;5.561538461538462;;;2.830769230769231;;
15557;SDS011;7880;50.110;9.372;2023-04-15T05:32:33;3.7692307692307705;;;2.8;;
15557;SDS011;7880;50.110;9.372;2023-04-15T05:37:41;8.876923076923076;;;4.6000000000000005;;
15557;SDS011;7880;50.110;9.372;2023-04-15T05:42:43;9.93846153846154;;;5.9;;
15557;SDS011;7880;50.110;9.372;2023-04-15T05:47:49;6.36153846153846;;;4.200000000000001;;
15557;SDS011;7880;50.110;9.372;2023-04-15T05:52:56;7.461538461538459;;;4.630769230769232;;
15557;SDS011;7880;50.110;9.372;2023-04-15T05:58:01;6.738461538461536;;;5.1692307692307695;;
15557;SDS011;7880;50.110;9.372;2023-04-15T06:03:00;8.069230769230769;;;5.03076923076923;;
15557;SDS011;7880;50.110;9.372;2023-04-15T06:08:04;10.469230769230771;;;4.830769230769231;;
15557;SDS011;7880;50.110;9.372;2023-04-15T06:13:12;4.93076923076923;;;3.600000000000001;;
15557;SDS011;7880;50.110;9.372;2023-04-15T06:18:17;8.553846153846155;;;5.03076923076923;;
15557;SDS011;7880;50.110;9.372;2023-04-15T06:23:19;9.86923076923077;;;6.469230769230771;;
15557;SDS011;7880;50.110;9.372;2023-04-15T06:28:29;12.538461538461538;;;7.200000000000002;;
15557;SDS011;7880;50.110;9.372;2023-04-15T06:33:27;7.56923076923077;;;5.46923076923077;;
15557;SDS011;7880;50.110;9.372;2023-04-15T06:38:32;11.538461538461538;;;6.330769230769231;;
15557;SDS011;7880;50.110;9.372;2023-04-15T06:43:35;8.738461538461538;;;6.369230769230768;;
15557;SDS011;7880;50.110;9.372;2023-04-15T06:48:40;10.930769230769231;;;5.492307692307694;;
15557;SDS011;7880;50.110;9.372;2023-04-15T06:53:46;7.56923076923077;;;4.5;;
15557;SDS011;7880;50.110;9.372;2023-04-15T06:58:51;8.569230769230769;;;4.23076923076923;;
15557;SDS011;7880;50.110;9.372;2023-04-15T07:03:57;7.969230769230771;;;4.530769230769231;;
15557;SDS011;7880;50.110;9.372;2023-04-15T07:09:02;9.77692307692308;;;5.361538461538462;;
15557;SDS011;7880;50.110;9.372;2023-04-15T07:14:04;10.676923076923076;;;5.0;;
15557;SDS011;7880;50.110;9.372;2023-04-15T07:19:15;10.10769230769231;;;5.0;;
15557;SDS011;7880;50.110;9.372;2023-04-15T07:24:16;12.746153846153849;;;4.3999999999999995;;
15557;SDS011;7880;50.110;9.372;2023-04-15T07:29:20;6.83846153846154;;;4.846153846153845;;
15557;SDS011;7880;50.110;9.372;2023-04-15T07:34:25;7.469230769230771;;;4.730769230769231;;
15557;SDS011;7880;50.110;9.372;2023-04-15T07:39:32;5.9;;;4.799999999999999;;
15557;SDS011;7880;50.110;9.372;2023-04-15T07:44:32;8.207692307692307;;;5.0;;
15557;SDS011;7880;50.110;9.372;2023-04-15T07:49:36;7.461538461538459;;;5.0;;
15557;SDS011;7880;50.110;9.372;2023-04-15T07:54:51;11.923076923076918;;;6.730769230769231;;
15557;SDS011;7880;50.110;9.372;2023-04-15T07:59:45;9.169230769230769;;;5.700000000000002;;
15557;SDS011;7880;50.110;9.372;2023-04-15T08:04:53;12.13846153846154;;;5.230769230769231;;
15557;SDS011;7880;50.110;9.372;2023-04-15T08:09:55;5.0;;;4.130769230769232;;
15557;SDS011;7880;50.110;9.372;2023-04-15T08:15:01;7.338461538461539;;;4.469230769230769;;
15557;SDS011;7880;50.110;9.372;2023-04-15T08:20:07;4.630769230769232;;;4.1000000000000005;;
15557;SDS011;7880;50.110;9.372;2023-04-15T08:25:09;5.369230769230768;;;3.399999999999999;;
15557;SDS011;7880;50.110;9.372;2023-04-15T08:30:15;6.338461538461538;;;4.5;;
15557;SDS011;7880;50.110;9.372;2023-04-15T08:35:16;7.900000000000001;;;3.530769230769231;;
15557;SDS011;7880;50.110;9.372;2023-04-15T08:40:20;4.269230769230769;;;3.5;;
15557;SDS011;7880;50.110;9.372;2023-04-15T08:45:25;4.469230769230769;;;3.0;;
15557;SDS011;7880;50.110;9.372;2023-04-15T08:50:28;4.369230769230769;;;3.100000000000001;;
15557;SDS011;7880;50.110;9.372;2023-04-15T08:55:53;5.93076923076923;;;3.2999999999999994;;
15557;SDS011;7880;50.110;9.372;2023-04-15T09:00:37;15.546153846153844;;;8.299999999999999;;
15557;SDS011;7880;50.110;9.372;2023-04-15T09:05:43;4.6692307692307695;;;3.5;;
15557;SDS011;7880;50.110;9.372;2023-04-15T09:10:48;3.869230769230768;;;2.969230769230769;;
15557;SDS011;7880;50.110;9.372;2023-04-15T09:15:52;3.6692307692307695;;;2.8692307692307684;;
15557;SDS011;7880;50.110;9.372;2023-04-15T09:21:03;3.3307692307692305;;;2.3999999999999995;;
15557;SDS011;7880;50.110;9.372;2023-04-15T09:26:03;2.830769230769231;;;1.9307692307692308;;
15557;SDS011;7880;50.110;9.372;2023-04-15T09:31:07;5.338461538461538;;;2.230769230769231;;
15557;SDS011;7880;50.110;9.372;2023-04-15T09:36:10;2.0;;;1.8000000000000005;;
15557;SDS011;7880;50.110;9.372;2023-04-15T09:41:15;2.7692307692307705;;;1.8999999999999997;;
15557;SDS011;7880;50.110;9.372;2023-04-15T09:46:18;5.369230769230768;;;2.7692307692307705;;
15557;SDS011;7880;50.110;9.372;2023-04-15T09:51:31;7.969230769230771;;;4.730769230769231;;
15557;SDS011;7880;50.110;9.372;2023-04-15T09:56:38;2.3000000000000003;;;2.1000000000000005;;
15557;SDS011;7880;50.110;9.372;2023-04-15T10:01:33;3.4307692307692297;;;1.3000000000000003;;
15557;SDS011;7880;50.110;9.372;2023-04-15T10:06:42;1.4307692307692308;;;1.3000000000000003;;
15557;SDS011;7880;50.110;9.372;2023-04-15T10:11:42;1.3692307692307695;;;1.0999999999999999;;
15557;SDS011;7880;50.110;9.372;2023-04-15T10:16:48;1.8000000000000005;;;1.5;;
15557;SDS011;7880;50.110;9.372;2023-04-15T10:21:52;1.8999999999999997;;;1.4307692307692308;;
15557;SDS011;7880;50.110;9.372;2023-04-15T10:26:56;2.3000000000000003;;;1.6999999999999995;;
15557;SDS011;7880;50.110;9.372;2023-04-15T10:32:02;1.9615384615384621;;;1.6999999999999995;;
15557;SDS011;7880;50.110;9.372;2023-04-15T10:37:08;2.569230769230769;;;1.6;;
15557;SDS011;7880;50.110;9.372;2023-04-15T10:42:12;1.8692307692307695;;;1.7692307692307692;;
15557;SDS011;7880;50.110;9.372;2023-04-15T10:47:18;2.569230769230769;;;0.9307692307692309;;
15557;SDS011;7880;50.110;9.372;2023-04-15T10:52:22;2.899999999999999;;;1.6999999999999995;;
15557;SDS011;7880;50.110;9.372;2023-04-15T10:57:26;3.2999999999999994;;;1.8000000000000005;;
15557;SDS011;7880;50.110;9.372;2023-04-15T11:02:37;3.7000000000000006;;;2.469230769230769;;
15557;SDS011;7880;50.110;9.372;2023-04-15T11:07:34;3.899999999999999;;;2.230769230769231;;
15557;SDS011;7880;50.110;9.372;2023-04-15T11:12:38;5.1692307692307695;;;2.0;;
15557;SDS011;7880;50.110;9.372;2023-04-15T11:17:44;2.7692307692307705;;;2.3000000000000003;;
15557;SDS011;7880;50.110;9.372;2023-04-15T11:22:48;2.8615384615384616;;;2.1999999999999997;;
15557;SDS011;7880;50.110;9.372;2023-04-15T11:27:53;10.515384615384615;;;3.0;;
15557;SDS011;7880;50.110;9.372;2023-04-15T11:32:58;2.8615384615384616;;;2.230769230769231;;
15557;SDS011;7880;50.110;9.372;2023-04-15T11:38:02;2.8;;;2.5;;
15557;SDS011;7880;50.110;9.372;2023-04-15T11:43:10;2.269230769230769;;;2.0;;
15557;SDS011;7880;50.110;9.372;2023-04-15T11:48:12;4.269230769230769;;;2.7;;
15557;SDS011;7880;50.110;9.372;2023-04-15T11:53:23;6.846153846153844;;;3.923076923076922;;
15557;SDS011;7880;50.110;9.372;2023-04-15T11:58:21;5.984615384615386;;;3.8307692307692305;;
15557;SDS011;7880;50.110;9.372;2023-04-15T12:03:24;3.8307692307692305;;;2.899999999999999;;
15557;SDS011;7880;50.110;9.372;2023-04-15T12:08:46;3.5;;;2.530769230769231;;
15557;SDS011;7880;50.110;9.372;2023-04-15T12:13:34;9.538461538461542;;;5.06923076923077;;
15557;SDS011;7880;50.110;9.372;2023-04-15T12:18:37;5.03076923076923;;;3.7999999999999994;;
15557;SDS011;7880;50.110;9.372;2023-04-15T12:23:46;5.86153846153846;;;3.899999999999999;;
15557;SDS011;7880;50.110;9.372;2023-04-15T12:28:50;18.953846153846158;;;11.7;;
15557;SDS011;7880;50.110;9.372;2023-04-15T12:34:00;19.646153846153847;;;12.338461538461537;;
15557;SDS011;7880;50.110;9.372;2023-04-15T12:38:56;8.36153846153846;;;5.630769230769232;;
15557;SDS011;7880;50.110;9.372;2023-04-15T12:44:00;5.86153846153846;;;4.200000000000001;;
15557;SDS011;7880;50.110;9.372;2023-04-15T12:49:05;9.176923076923076;;;5.969230769230771;;
15557;SDS011;7880;50.110;9.372;2023-04-15T12:54:17;8.061538461538463;;;4.8999999999999995;;
15557;SDS011;7880;50.110;9.372;2023-04-15T12:59:15;6.130769230769232;;;4.0307692307692315;;
15557;SDS011;7880;50.110;9.372;2023-04-15T13:04:24;7.884615384615385;;;5.161538461538462;;
15557;SDS011;7880;50.110;9.372;2023-04-15T13:09:23;5.338461538461536;;;3.7000000000000006;;
15557;SDS011;7880;50.110;9.372;2023-04-15T13:14:28;7.115384615384614;;;4.915384615384616;;
15557;SDS011;7880;50.110;9.372;2023-04-15T13:19:35;5.038461538461539;;;3.6692307692307695;;
15557;SDS011;7880;50.110;9.372;2023-04-15T13:24:36;6.330769230769231;;;3.9615384615384617;;
15557;SDS011;7880;50.110;9.372;2023-04-15T13:29:42;5.9923076923076914;;;4.2615384615384615;;
15557;SDS011;7880;50.110;9.372;2023-04-15T13:34:47;6.261538461538464;;;4.361538461538462;;
15557;SDS011;7880;50.110;9.372;2023-04-15T13:40:06;4.200000000000001;;;3.7999999999999994;;
15557;SDS011;7880;50.110;9.372;2023-04-15T13:44:56;6.584615384615386;;;4.16923076923077;;
15557;SDS011;7880;50.110;9.372;2023-04-15T13:50:03;5.261538461538462;;;3.7000000000000006;;
15557;SDS011;7880;50.110;9.372;2023-04-15T13:55:10;5.200000000000001;;;3.600000000000001;;
15557;SDS011;7880;50.110;9.372;2023-04-15T14:00:12;5.0;;;3.7692307692307705;;
15557;SDS011;7880;50.110;9.372;2023-04-15T14:05:15;5.200000000000001;;;3.630769230769232;;
15557;SDS011;7880;50.110;9.372;2023-04-15T14:10:19;4.3999999999999995;;;3.130769230769232;;
15557;SDS011;7880;50.110;9.372;2023-04-15T14:15:26;5.1000000000000005;;;3.6692307692307695;;
15557;SDS011;7880;50.110;9.372;2023-04-15T14:20:37;4.161538461538461;;;3.600000000000001;;
15557;SDS011;7880;50.110;9.372;2023-04-15T14:25:38;4.830769230769231;;;3.3307692307692305;;
15557;SDS011;7880;50.110;9.372;2023-04-15T14:30:45;3.6692307692307695;;;3.0;;
15557;SDS011;7880;50.110;9.372;2023-04-15T14:35:45;3.561538461538462;;;2.93076923076923;;
15557;SDS011;7880;50.110;9.372;2023-04-15T14:40:49;5.453846153846153;;;3.899999999999999;;
15557;SDS011;7880;50.110;9.372;2023-04-15T14:45:54;3.8615384615384616;;;3.43076923076923;;
15557;SDS011;7880;50.110;9.372;2023-04-15T14:50:59;4.23076923076923;;;3.2307692307692295;;
15557;SDS011;7880;50.110;9.372;2023-04-15T14:56:04;5.06923076923077;;;3.8307692307692305;;
15557;SDS011;7880;50.110;9.372;2023-04-15T15:00:39;22.59230769230769;;;13.815384615384618;;
15557;SDS011;7880;50.110;9.372;2023-04-15T15:05:42;4.6000000000000005;;;3.399999999999999;;
15557;SDS011;7880;50.110;9.372;2023-04-15T15:10:46;4.93076923076923;;;3.2999999999999994;;
15557;SDS011;7880;50.110;9.372;2023-04-15T15:16:01;3.0;;;2.7;;
15557;SDS011;7880;50.110;9.372;2023-04-15T15:21:00;7.130769230769232;;;5.1692307692307695;;
15557;SDS011;7880;50.110;9.372;2023-04-15T15:26:03;4.23076923076923;;;3.100000000000001;;
15557;SDS011;7880;50.110;9.372;2023-04-15T15:31:09;3.2692307692307705;;;2.5;;
15557;SDS011;7880;50.110;9.372;2023-04-15T15:36:13;2.8;;;2.5;;
15557;SDS011;7880;50.110;9.372;2023-04-15T15:41:17;3.2692307692307705;;;2.899999999999999;;
15557;SDS011;7880;50.110;9.372;2023-04-15T15:46:23;3.100000000000001;;;2.430769230769231;;
15557;SDS011;7880;50.110;9.372;2023-04-15T15:51:28;3.338461538461539;;;2.0692307692307694;;
15557;SDS011;7880;50.110;9.372;2023-04-15T15:56:44;4.469230769230769;;;2.1999999999999997;;
15557;SDS011;7880;50.110;9.372;2023-04-15T16:01:41;2.899999999999999;;;2.6000000000000005;;
15557;SDS011;7880;50.110;9.372;2023-04-15T16:06:43;2.6000000000000005;;;2.030769230769231;;
15557;SDS011;7880;50.110;9.372;2023-04-15T16:11:45;4.538461538461538;;;2.7;;
15557;SDS011;7880;50.110;9.372;2023-04-15T16:16:51;3.3615384615384616;;;2.4615384615384617;;
15557;SDS011;7880;50.110;9.372;2023-04-15T16:22:01;3.369230769230768;;;2.269230769230769;;
15557;SDS011;7880;50.110;9.372;2023-04-15T16:27:15;3.2999999999999994;;;2.4230769230769225;;
15557;SDS011;7880;50.110;9.372;2023-04-15T16:32:06;2.3999999999999995;;;1.8000000000000005;;
15557;SDS011;7880;50.110;9.372;2023-04-15T16:37:11;2.7692307692307705;;;2.269230769230769;;
15557;SDS011;7880;50.110;9.372;2023-04-15T16:42:15;3.2307692307692295;;;1.9307692307692308;;
15557;SDS011;7880;50.110;9.372;2023-04-15T16:47:20;4.561538461538462;;;2.3000000000000003;;
15557;SDS011;7880;50.110;9.372;2023-04-15T16:52:25;3.661538461538461;;;2.6923076923076925;;
15557;SDS011;7880;50.110;9.372;2023-04-15T16:57:30;3.469230769230769;;;1.9307692307692308;;
15557;SDS011;7880;50.110;9.372;2023-04-15T17:02:35;3.7000000000000006;;;2.1999999999999997;;
15557;SDS011;7880;50.110;9.372;2023-04-15T17:07:39;2.5;;;1.8999999999999997;;
15557;SDS011;7880;50.110;9.372;2023-04-15T17:12:46;2.899999999999999;;;2.0;;
15557;SDS011;7880;50.110;9.372;2023-04-15T17:17:49;7.030769230769229;;;3.8307692307692305;;
15557;SDS011;7880;50.110;9.372;2023-04-15T17:22:59;4.130769230769232;;;2.830769230769231;;
15557;SDS011;7880;50.110;9.372;2023-04-15T17:28:07;3.5;;;2.1999999999999997;;
15557;SDS011;7880;50.110;9.372;2023-04-15T17:33:05;2.8;;;2.030769230769231;;
15557;SDS011;7880;50.110;9.372;2023-04-15T17:38:08;4.961538461538461;;;3.5;;
15557;SDS011;7880;50.110;9.372;2023-04-15T17:43:16;5.338461538461538;;;3.2;;
15557;SDS011;7880;50.110;9.372;2023-04-15T17:48:21;3.06923076923077;;;2.3999999999999995;;
15557;SDS011;7880;50.110;9.372;2023-04-15T17:53:24;2.5;;;2.030769230769231;;
15557;SDS011;7880;50.110;9.372;2023-04-15T17:58:31;7.961538461538459;;;4.961538461538461;;
15557;SDS011;7880;50.110;9.372;2023-04-15T18:03:34;6.299999999999998;;;4.299999999999999;;
15557;SDS011;7880;50.110;9.372;2023-04-15T18:08:39;3.869230769230768;;;2.1999999999999997;;
15557;SDS011;7880;50.110;9.372;2023-04-15T18:13:43;5.369230769230768;;;3.469230769230769;;
15557;SDS011;7880;50.110;9.372;2023-04-15T18:18:49;2.7;;;2.5;;
15557;SDS011;7880;50.110;9.372;2023-04-15T18:23:53;11.130769230769229;;;7.330769230769231;;
15557;SDS011;7880;50.110;9.372;2023-04-15T18:29:01;2.899999999999999;;;2.6000000000000005;;
15557;SDS011;7880;50.110;9.372;2023-04-15T18:34:11;4.2615384615384615;;;3.261538461538461;;
15557;SDS011;7880;50.110;9.372;2023-04-15T18:39:05;4.3999999999999995;;;3.7000000000000006;;
15557;SDS011;7880;50.110;9.372;2023-04-15T18:44:09;4.130769230769232;;;3.56923076923077;;
15557;SDS011;7880;50.110;9.372;2023-04-15T18:49:12;6.13846153846154;;;3.899999999999999;;
15557;SDS011;7880;50.110;9.372;2023-04-15T18:54:21;4.830769230769231;;;4.0;;
15557;SDS011;7880;50.110;9.372;2023-04-15T18:59:24;5.538461538461541;;;4.3999999999999995;;
15557;SDS011;7880;50.110;9.372;2023-04-15T19:04:30;3.9615384615384617;;;3.561538461538462;;
15557;SDS011;7880;50.110;9.372;2023-04-15T19:09:35;4.861538461538462;;;3.8307692307692305;;
15557;SDS011;7880;50.110;9.372;2023-04-15T19:14:39;3.93076923076923;;;3.530769230769231;;
15557;SDS011;7880;50.110;9.372;2023-04-15T19:19:43;8.784615384615385;;;6.961538461538459;;
15557;SDS011;7880;50.110;9.372;2023-04-15T19:24:50;5.438461538461538;;;4.1000000000000005;;
15557;SDS011;7880;50.110;9.372;2023-04-15T19:29:56;5.1000000000000005;;;4.299999999999999;;
15557;SDS011;7880;50.110;9.372;2023-04-15T19:34:59;4.123076923076923;;;3.530769230769231;;
15557;SDS011;7880;50.110;9.372;2023-04-15T19:40:04;8.369230769230766;;;4.461538461538462;;
15557;SDS011;7880;50.110;9.372;2023-04-15T19:45:09;8.353846153846156;;;5.86153846153846;;
15557;SDS011;7880;50.110;9.372;2023-04-15T19:50:25;6.630769230769232;;;4.5;;
15557;SDS011;7880;50.110;9.372;2023-04-15T19:55:21;6.661538461538461;;;4.3999999999999995;;
15557;SDS011;7880;50.110;9.372;2023-04-15T20:00:26;4.530769230769231;;;3.3307692307692305;;
15557;SDS011;7880;50.110;9.372;2023-04-15T20:04:43;6.469230769230771;;;4.3999999999999995;;
15557;SDS011;7880;50.110;9.372;2023-04-15T20:09:51;9.207692307692309;;;5.1692307692307695;;
15557;SDS011;7880;50.110;9.372;2023-04-15T20:14:54;6.10769230769231;;;4.338461538461538;;
15557;SDS011;7880;50.110;9.372;2023-04-15T20:19:59;9.661538461538463;;;6.292307692307693;;
15557;SDS011;7880;50.110;9.372;2023-04-15T20:25:03;6.469230769230771;;;4.6000000000000005;;
15557;SDS011;7880;50.110;9.372;2023-04-15T20:30:11;8.0;;;6.200000000000002;;
15557;SDS011;7880;50.110;9.372;2023-04-15T20:35:13;9.538461538461538;;;6.56923076923077;;
15557;SDS011;7880;50.110;9.372;2023-04-15T20:40:18;11.207692307692307;;;7.200000000000002;;
15557;SDS011;7880;50.110;9.372;2023-04-15T20:45:25;12.230769230769235;;;6.661538461538461;;
15557;SDS011;7880;50.110;9.372;2023-04-15T20:50:28;10.900000000000004;;;7.0;;
15557;SDS011;7880;50.110;9.372;2023-04-15T20:55:49;8.792307692307691;;;5.93076923076923;;
15557;SDS011;7880;50.110;9.372;2023-04-15T21:00:49;9.676923076923076;;;6.315384615384616;;
15557;SDS011;7880;50.110;9.372;2023-04-15T21:05:53;11.900000000000004;;;7.030769230769229;;
15557;SDS011;7880;50.110;9.372;2023-04-15T21:10:58;13.176923076923078;;;7.969230769230771;;
15557;SDS011;7880;50.110;9.372;2023-04-15T21:16:05;11.569230769230767;;;7.5;;
15557;SDS011;7880;50.110;9.372;2023-04-15T21:21:07;13.800000000000002;;;7.099999999999999;;
15557;SDS011;7880;50.110;9.372;2023-04-15T21:26:11;10.13846153846154;;;7.200000000000002;;
15557;SDS011;7880;50.110;9.372;2023-04-15T21:31:28;9.992307692307692;;;6.292307692307693;;
15557;SDS011;7880;50.110;9.372;2023-04-15T21:36:21;13.707692307692307;;;8.0;;
15557;SDS011;7880;50.110;9.372;2023-04-15T21:41:24;14.00769230769231;;;8.200000000000001;;
15557;SDS011;7880;50.110;9.372;2023-04-15T21:46:28;13.63846153846154;;;8.13076923076923;;
15557;SDS011;7880;50.110;9.372;2023-04-15T21:51:46;10.823076923076924;;;7.330769230769231;;
15557;SDS011;7880;50.110;9.372;2023-04-15T21:56:41;12.623076923076924;;;7.86153846153846;;
15557;SDS011;7880;50.110;9.372;2023-04-15T22:01:43;13.430769230769233;;;8.761538461538462;;
15557;SDS011;7880;50.110;9.372;2023-04-15T22:06:51;14.13846153846154;;;9.36923076923077;;
15557;SDS011;7880;50.110;9.372;2023-04-15T22:12:04;14.384615384615389;;;9.492307692307692;;
15557;SDS011;7880;50.110;9.372;2023-04-15T22:16:56;13.900000000000004;;;8.723076923076922;;
15557;SDS011;7880;50.110;9.372;2023-04-15T22:22:02;13.60769230769231;;;7.730769230769231;;
15557;SDS011;7880;50.110;9.372;2023-04-15T22:27:07;12.730769230769235;;;8.030769230769229;;
15557;SDS011;7880;50.110;9.372;2023-04-15T22:32:20;15.661538461538463;;;9.761538461538464;;
15557;SDS011;7880;50.110;9.372;2023-04-15T22:37:23;15.076923076923073;;;9.530769230769229;;
15557;SDS011;7880;50.110;9.372;2023-04-15T22:42:27;13.261538461538464;;;9.099999999999998;;
15557;SDS011;7880;50.110;9.372;2023-04-15T22:47:26;13.699999999999998;;;9.099999999999998;;